Time,TemperatureF,DewpointF,PressureIn,WindDirection,WindDirectionDegrees,WindSpeedMPH,WindSpeedGustMPH,Humidity,HourlyPrecipIn,Conditions,Clouds,dailyrainin,SoftwareType,DateUTC
2013-07-02 00:01:00,63.1,51.9,30.27,NNW,338,0.0,0.0,67,0.00,,,0.00,WUHU216HW,2013-07-02 05:01:00,
2013-07-02 00:06:00,63.1,51.9,30.27,NNW,338,0.0,0.0,67,0.00,,,0.00,WUHU216HW,2013-07-02 05:06:00,
2013-07-02 00:11:00,63.1,51.9,30.27,NNW,338,0.0,0.0,67,0.00,,,0.00,WUHU216HW,2013-07-02 05:11:00,
2013-07-02 00:16:00,62.9,51.8,30.27,NNW,338,0.0,0.0,67,0.00,,,0.00,WUHU216HW,2013-07-02 05:16:00,
2013-07-02 00:21:00,63.1,52.3,30.27,NNW,338,0.0,0.0,68,0.00,,,0.00,WUHU216HW,2013-07-02 05:21:00,
2013-07-02 00:26:00,63.1,52.8,30.28,NNW,338,0.0,0.0,69,0.00,,,0.00,WUHU216HW,2013-07-02 05:26:00,
2013-07-02 00:31:00,63.1,52.8,30.27,NNW,338,0.0,0.0,69,0.00,,,0.00,WUHU216HW,2013-07-02 05:31:00,
2013-07-02 00:36:00,63.1,53.2,30.28,NNW,338,0.0,0.0,70,0.00,,,0.00,WUHU216HW,2013-07-02 05:36:00,
2013-07-02 00:41:00,63.1,53.2,30.27,NNW,338,0.0,0.0,70,0.00,,,0.00,WUHU216HW,2013-07-02 05:41:00,
2013-07-02 00:46:00,63.1,53.2,30.28,NNW,338,0.0,0.0,70,0.00,,,0.00,WUHU216HW,2013-07-02 05:46:00,
2013-07-02 00:51:00,63.1,53.6,30.28,NNW,338,0.0,0.0,71,0.00,,,0.00,WUHU216HW,2013-07-02 05:51:00,
2013-07-02 00:56:00,62.9,53.7,30.27,NNW,338,0.0,0.0,72,0.00,,,0.00,WUHU216HW,2013-07-02 05:56:00,
2013-07-02 01:01:00,62.9,54.1,30.28,NNW,338,0.0,0.0,73,0.00,,,0.00,WUHU216HW,2013-07-02 06:01:00,
2013-07-02 01:06:00,62.7,53.6,30.28,NNW,338,0.0,0.0,72,0.00,,,0.00,WUHU216HW,2013-07-02 06:06:00,
2013-07-02 01:11:00,62.9,53.7,30.28,NNW,338,0.0,0.0,72,0.00,,,0.00,WUHU216HW,2013-07-02 06:11:00,
2013-07-02 01:16:00,62.9,54.1,30.28,NNW,338,0.0,0.0,73,0.00,,,0.00,WUHU216HW,2013-07-02 06:16:00,
2013-07-02 01:21:00,62.9,54.1,30.28,NNW,338,0.0,0.0,73,0.00,,,0.00,WUHU216HW,2013-07-02 06:21:00,
2013-07-02 01:26:00,62.9,54.5,30.28,NNW,338,0.0,0.0,74,0.00,,,0.00,WUHU216HW,2013-07-02 06:26:00,
2013-07-02 01:31:00,62.7,54.6,30.27,NNW,338,0.0,0.0,75,0.00,,,0.00,WUHU216HW,2013-07-02 06:31:00,
2013-07-02 01:36:00,62.6,54.5,30.28,NNW,338,0.0,0.0,75,0.00,,,0.00,WUHU216HW,2013-07-02 06:36:00,
2013-07-02 01:41:00,62.7,55.0,30.28,NNW,338,0.0,0.0,76,0.00,,,0.00,WUHU216HW,2013-07-02 06:41:00,
2013-07-02 01:46:00,62.7,55.0,30.28,NNW,338,0.0,0.0,76,0.00,,,0.00,WUHU216HW,2013-07-02 06:46:00,
2013-07-02 01:51:00,62.6,55.2,30.28,NNW,338,0.0,0.0,77,0.00,,,0.00,WUHU216HW,2013-07-02 06:51:00,
2013-07-02 01:56:00,63.1,56.1,30.28,East,90,0.0,0.0,78,0.00,,,0.00,WUHU216HW,2013-07-02 06:56:00,
2013-07-02 02:01:00,63.1,56.1,30.28,ESE,113,0.0,0.0,78,0.00,,,0.00,WUHU216HW,2013-07-02 07:01:00,
2013-07-02 02:06:00,63.1,55.0,30.28,ESE,113,0.0,0.0,75,0.00,,,0.00,WUHU216HW,2013-07-02 07:06:00,
2013-07-02 02:11:00,62.6,52.8,30.28,ESE,113,0.0,0.0,71,0.00,,,0.00,WUHU216HW,2013-07-02 07:11:00,
2013-07-02 02:16:00,61.8,52.4,30.28,ESE,113,0.0,0.0,71,0.00,,,0.00,WUHU216HW,2013-07-02 07:16:00,
2013-07-02 02:21:00,61.7,52.2,30.27,ESE,113,0.0,0.0,71,0.00,,,0.00,WUHU216HW,2013-07-02 07:21:00,
2013-07-02 02:26:00,61.5,51.7,30.27,ESE,113,0.0,0.0,70,0.00,,,0.00,WUHU216HW,2013-07-02 07:26:00,
2013-07-02 02:31:00,61.7,52.6,30.27,ESE,113,0.0,0.0,72,0.00,,,0.00,WUHU216HW,2013-07-02 07:31:00,
2013-07-02 02:36:00,61.8,52.4,30.27,ESE,113,0.0,0.0,71,0.00,,,0.00,WUHU216HW,2013-07-02 07:36:00,
2013-07-02 02:41:00,62.0,51.8,30.27,ESE,113,0.0,0.0,69,0.00,,,0.00,WUHU216HW,2013-07-02 07:41:00,
2013-07-02 02:46:00,62.2,52.3,30.27,ESE,113,0.0,0.0,70,0.00,,,0.00,WUHU216HW,2013-07-02 07:46:00,
2013-07-02 02:51:00,62.6,53.4,30.27,ESE,113,0.0,0.0,72,0.00,,,0.00,WUHU216HW,2013-07-02 07:51:00,
2013-07-02 02:56:00,63.1,53.9,30.27,ESE,113,0.0,0.0,72,0.00,,,0.00,WUHU216HW,2013-07-02 07:56:00,
2013-07-02 03:01:00,63.3,53.7,30.27,ESE,113,0.0,0.0,71,0.00,,,0.00,WUHU216HW,2013-07-02 08:01:00,
2013-07-02 03:06:00,63.3,52.9,30.27,ESE,113,0.0,0.0,69,0.00,,,0.00,WUHU216HW,2013-07-02 08:06:00,
2013-07-02 03:11:00,63.3,52.1,30.27,SSE,158,0.0,0.0,67,0.00,,,0.00,WUHU216HW,2013-07-02 08:11:00,
2013-07-02 03:16:00,63.3,51.7,30.27,SSE,158,0.0,0.0,66,0.00,,,0.00,WUHU216HW,2013-07-02 08:16:00,
2013-07-02 03:21:00,63.5,51.9,30.27,SSE,158,0.0,0.0,66,0.00,,,0.00,WUHU216HW,2013-07-02 08:21:00,
2013-07-02 03:26:00,63.5,52.7,30.27,NNE,23,1.9,1.9,68,0.00,,,0.00,WUHU216HW,2013-07-02 08:26:00,
2013-07-02 03:31:00,63.6,53.7,30.27,NNE,23,0.0,1.9,70,0.00,,,0.00,WUHU216HW,2013-07-02 08:31:00,
2013-07-02 03:36:00,63.6,54.1,30.27,NNE,23,0.0,1.9,71,0.00,,,0.00,WUHU216HW,2013-07-02 08:36:00,
2013-07-02 03:41:00,63.5,54.3,30.27,NNE,23,0.0,0.0,72,0.00,,,0.00,WUHU216HW,2013-07-02 08:41:00,
2013-07-02 03:46:00,63.5,54.3,30.27,NNE,23,0.0,0.0,72,0.00,,,0.00,WUHU216HW,2013-07-02 08:46:00,
2013-07-02 03:51:00,63.5,54.3,30.27,NNE,23,0.0,0.0,72,0.00,,,0.00,WUHU216HW,2013-07-02 08:51:00,
2013-07-02 03:56:00,63.6,54.8,30.27,NW,315,0.0,0.0,73,0.00,,,0.00,WUHU216HW,2013-07-02 08:56:00,
2013-07-02 04:01:00,64.0,55.2,30.27,WNW,293,0.0,0.0,73,0.00,,,0.00,WUHU216HW,2013-07-02 09:01:00,
2013-07-02 04:06:00,64.0,54.8,30.27,WNW,293,0.0,0.0,72,0.00,,,0.00,WUHU216HW,2013-07-02 09:06:00,
2013-07-02 04:11:00,64.0,54.1,30.27,WNW,293,0.0,0.0,70,0.00,,,0.00,WUHU216HW,2013-07-02 09:11:00,
2013-07-02 04:16:00,63.6,53.3,30.27,WNW,293,0.0,0.0,69,0.00,,,0.00,WUHU216HW,2013-07-02 09:16:00,
2013-07-02 04:21:00,63.5,52.7,30.27,WNW,293,0.0,0.0,68,0.00,,,0.00,WUHU216HW,2013-07-02 09:21:00,
2013-07-02 04:26:00,63.6,52.5,30.27,WNW,293,0.0,0.0,67,0.00,,,0.00,WUHU216HW,2013-07-02 09:26:00,
2013-07-02 04:31:00,63.6,52.0,30.27,WNW,293,0.0,0.0,66,0.00,,,0.00,WUHU216HW,2013-07-02 09:31:00,
2013-07-02 04:36:00,63.6,52.0,30.27,WNW,293,0.0,0.0,66,0.00,,,0.00,WUHU216HW,2013-07-02 09:36:00,
2013-07-02 04:43:00,63.8,52.2,30.27,WNW,293,0.0,0.0,66,0.00,,,0.00,WUHU216HW,2013-07-02 09:43:00,
2013-07-02 04:48:00,64.0,52.4,30.27,WNW,293,0.0,0.0,66,0.00,,,0.00,WUHU216HW,2013-07-02 09:48:00,
2013-07-02 04:53:00,64.0,51.9,30.27,WNW,293,0.0,0.0,65,0.00,,,0.00,WUHU216HW,2013-07-02 09:53:00,
2013-07-02 04:58:00,64.0,52.4,30.27,WNW,293,0.0,0.0,66,0.00,,,0.00,WUHU216HW,2013-07-02 09:58:00,
2013-07-02 05:03:00,64.0,52.4,30.27,WNW,293,0.0,0.0,66,0.00,,,0.00,WUHU216HW,2013-07-02 10:03:00,
2013-07-02 05:09:00,64.0,52.4,30.27,WNW,293,0.0,0.0,66,0.00,,,0.00,WUHU216HW,2013-07-02 10:09:00,
2013-07-02 05:14:00,63.6,52.0,30.27,WNW,293,0.0,0.0,66,0.00,,,0.00,WUHU216HW,2013-07-02 10:14:00,
2013-07-02 05:19:00,63.5,51.9,30.27,WNW,293,0.0,0.0,66,0.00,,,0.00,WUHU216HW,2013-07-02 10:19:00,
2013-07-02 05:24:00,63.3,51.3,30.27,WNW,293,0.0,0.0,65,0.00,,,0.00,WUHU216HW,2013-07-02 10:24:00,
2013-07-02 05:29:00,62.9,50.5,30.27,WNW,293,0.0,0.0,64,0.00,,,0.00,WUHU216HW,2013-07-02 10:29:00,
2013-07-02 05:34:00,62.7,50.3,30.27,WNW,293,0.0,0.0,64,0.00,,,0.00,WUHU216HW,2013-07-02 10:34:00,
2013-07-02 05:39:00,62.9,50.9,30.27,WNW,293,0.0,0.0,65,0.00,,,0.00,WUHU216HW,2013-07-02 10:39:00,
2013-07-02 05:44:00,63.3,50.8,30.27,WNW,293,0.0,0.0,64,0.00,,,0.00,WUHU216HW,2013-07-02 10:44:00,
2013-07-02 05:48:00,63.5,51.9,30.27,WNW,293,0.0,0.0,66,0.00,,,0.00,WUHU216HW,2013-07-02 10:48:00,
2013-07-02 05:54:00,63.8,53.0,30.27,WNW,293,0.0,0.0,68,0.00,,,0.00,WUHU216HW,2013-07-02 10:54:00,
2013-07-02 06:01:00,63.6,52.5,30.27,WNW,293,0.0,0.0,67,0.00,,,0.00,WUHU216HW,2013-07-02 11:01:00,
2013-07-02 06:06:00,63.6,53.3,30.27,NNW,338,0.0,0.0,69,0.00,,,0.00,WUHU216HW,2013-07-02 11:06:00,
2013-07-02 06:11:00,63.3,53.4,30.27,NNW,338,0.0,0.0,70,0.00,,,0.00,WUHU216HW,2013-07-02 11:11:00,
2013-07-02 06:16:00,63.3,53.7,30.27,NNW,338,0.0,0.0,71,0.00,,,0.00,WUHU216HW,2013-07-02 11:16:00,
2013-07-02 06:21:00,63.5,54.6,30.27,NNW,338,0.0,0.0,73,0.00,,,0.00,WUHU216HW,2013-07-02 11:21:00,
2013-07-02 06:26:00,63.3,54.8,30.27,WNW,293,0.0,0.0,74,0.00,,,0.00,WUHU216HW,2013-07-02 11:26:00,
2013-07-02 06:31:00,63.5,54.6,30.27,WNW,293,0.0,0.0,73,0.00,,,0.00,WUHU216HW,2013-07-02 11:31:00,
2013-07-02 06:36:00,63.6,54.8,30.27,WNW,293,0.0,0.0,73,0.00,,,0.00,WUHU216HW,2013-07-02 11:36:00,
2013-07-02 06:41:00,63.6,54.5,30.27,WNW,293,0.0,0.0,72,0.00,,,0.00,WUHU216HW,2013-07-02 11:41:00,
2013-07-02 06:46:00,64.0,54.5,30.27,WNW,293,0.0,0.0,71,0.00,,,0.00,WUHU216HW,2013-07-02 11:46:00,
2013-07-02 06:51:00,64.2,54.6,30.27,WNW,293,0.0,0.0,71,0.00,,,0.00,WUHU216HW,2013-07-02 11:51:00,
2013-07-02 06:56:00,64.5,54.6,30.27,WNW,293,0.0,0.0,70,0.00,,,0.00,WUHU216HW,2013-07-02 11:56:00,
2013-07-02 07:01:00,64.7,54.3,30.28,NW,315,0.0,0.0,69,0.00,,,0.00,WUHU216HW,2013-07-02 12:01:00,
2013-07-02 07:06:00,64.9,54.5,30.27,NNW,338,0.0,0.0,69,0.00,,,0.00,WUHU216HW,2013-07-02 12:06:00,
2013-07-02 07:11:00,64.9,54.9,30.27,NNW,338,0.0,0.0,70,0.00,,,0.00,WUHU216HW,2013-07-02 12:11:00,
2013-07-02 07:16:00,65.1,55.1,30.27,NNW,338,0.0,0.0,70,0.00,,,0.00,WUHU216HW,2013-07-02 12:16:00,
2013-07-02 07:21:00,65.3,55.3,30.27,NNW,338,0.0,0.0,70,0.00,,,0.00,WUHU216HW,2013-07-02 12:21:00,
2013-07-02 07:26:00,65.8,55.0,30.27,NNW,338,0.0,0.0,69,0.00,,,0.00,WUHU216HW,2013-07-02 12:26:00,
2013-07-02 07:31:00,66.0,55.1,30.27,NNW,338,0.0,0.0,68,0.00,,,0.00,WUHU216HW,2013-07-02 12:31:00,
2013-07-02 07:36:00,66.3,55.4,30.27,NNW,338,0.0,0.0,68,0.00,,,0.00,WUHU216HW,2013-07-02 12:36:00,
2013-07-02 07:41:00,66.9,55.8,30.27,NW,315,0.0,0.0,67,0.00,,,0.00,WUHU216HW,2013-07-02 12:41:00,
2013-07-02 07:50:00,67.4,56.0,30.27,NW,315,0.0,0.0,67,0.00,,,0.00,WUHU216HW,2013-07-02 12:50:00,
2013-07-02 07:55:00,67.6,55.8,30.27,WNW,293,0.0,0.0,66,0.00,,,0.00,WUHU216HW,2013-07-02 12:55:00,
2013-07-02 08:00:00,67.8,55.5,30.27,West,270,0.0,0.0,65,0.00,,,0.00,WUHU216HW,2013-07-02 13:00:00,
2013-07-02 08:05:00,68.1,55.9,30.27,NW,315,0.0,0.0,65,0.00,,,0.00,WUHU216HW,2013-07-02 13:05:00,
2013-07-02 08:10:00,68.5,56.2,30.27,WNW,293,0.0,0.0,65,0.00,,,0.00,WUHU216HW,2013-07-02 13:10:00,
2013-07-02 08:15:00,69.4,57.1,30.27,WNW,293,0.0,2.8,65,0.00,,,0.00,WUHU216HW,2013-07-02 13:15:00,
2013-07-02 08:20:00,71.0,57.8,30.27,WNW,293,0.0,2.8,63,0.00,,,0.00,WUHU216HW,2013-07-02 13:20:00,
2013-07-02 08:25:00,73.2,58.9,30.27,WNW,293,0.0,0.0,61,0.00,,,0.00,WUHU216HW,2013-07-02 13:25:00,
2013-07-02 08:30:00,75.9,59.5,30.27,West,270,0.0,0.0,57,0.00,,,0.00,WUHU216HW,2013-07-02 13:30:00,
2013-07-02 08:35:00,77.1,60.2,30.27,NW,315,0.0,0.0,56,0.00,,,0.00,WUHU216HW,2013-07-02 13:35:00,
2013-07-02 08:40:00,78.6,60.0,30.27,WNW,293,0.0,0.0,53,0.00,,,0.00,WUHU216HW,2013-07-02 13:40:00,
2013-07-02 08:45:00,80.9,61.6,30.27,WNW,293,0.0,0.0,52,0.00,,,0.00,WUHU216HW,2013-07-02 13:45:00,
2013-07-02 08:50:00,82.2,61.7,30.27,NW,315,1.0,1.0,50,0.00,,,0.00,WUHU216HW,2013-07-02 13:50:00,
2013-07-02 08:55:00,83.3,62.1,30.27,WNW,293,0.0,1.0,49,0.00,,,0.00,WUHU216HW,2013-07-02 13:55:00,
2013-07-02 09:00:00,84.7,62.9,30.27,WNW,293,0.0,0.0,48,0.00,,,0.00,WUHU216HW,2013-07-02 14:00:00,
2013-07-02 09:05:00,85.6,62.4,30.27,WNW,293,1.6,2.5,46,0.00,,,0.00,WUHU216HW,2013-07-02 14:05:00,
2013-07-02 09:10:00,86.3,63.1,30.27,NW,315,1.9,2.5,46,0.00,,,0.00,WUHU216HW,2013-07-02 14:10:00,
2013-07-02 09:15:00,87.0,62.4,30.27,NW,315,2.8,2.8,44,0.00,,,0.00,WUHU216HW,2013-07-02 14:15:00,
2013-07-02 09:20:00,87.4,62.8,30.27,WNW,293,0.5,2.8,44,0.00,,,0.00,WUHU216HW,2013-07-02 14:20:00,
2013-07-02 09:25:00,87.9,63.2,30.27,NNW,338,0.0,2.8,44,0.00,,,0.00,WUHU216HW,2013-07-02 14:25:00,
2013-07-02 09:30:00,89.4,63.1,30.27,NW,315,0.5,0.5,42,0.00,,,0.00,WUHU216HW,2013-07-02 14:30:00,
2013-07-02 09:35:00,89.9,63.0,30.27,NW,315,2.8,2.8,41,0.00,,,0.00,WUHU216HW,2013-07-02 14:35:00,
2013-07-02 09:40:00,89.9,63.0,30.27,NW,315,2.5,2.8,41,0.00,,,0.00,WUHU216HW,2013-07-02 14:40:00,
2013-07-02 09:45:00,89.7,61.4,30.27,NW,315,3.3,3.3,39,0.00,,,0.00,WUHU216HW,2013-07-02 14:45:00,
2013-07-02 09:50:00,90.1,62.5,30.27,North,0,0.0,3.3,40,0.00,,,0.00,WUHU216HW,2013-07-02 14:50:00,
2013-07-02 09:55:00,90.5,60.4,30.26,North,0,0.0,3.3,37,0.00,,,0.00,WUHU216HW,2013-07-02 14:55:00,
2013-07-02 10:00:00,91.2,61.9,30.26,North,0,0.0,0.0,38,0.00,,,0.00,WUHU216HW,2013-07-02 15:00:00,
2013-07-02 10:05:00,92.1,62.7,30.26,North,0,4.1,4.1,38,0.00,,,0.00,WUHU216HW,2013-07-02 15:05:00,
2013-07-02 10:10:00,91.9,61.7,30.27,North,0,2.8,4.1,37,0.00,,,0.00,WUHU216HW,2013-07-02 15:10:00,
2013-07-02 10:15:00,91.9,62.5,30.27,North,0,2.1,3.6,38,0.00,,,0.00,WUHU216HW,2013-07-02 15:15:00,
2013-07-02 10:20:00,91.5,62.2,30.26,ENE,68,0.0,3.6,38,0.00,,,0.00,WUHU216HW,2013-07-02 15:20:00,
2013-07-02 10:25:00,92.1,61.1,30.26,NNE,23,0.0,2.1,36,0.00,,,0.00,WUHU216HW,2013-07-02 15:25:00,
2013-07-02 10:30:00,93.3,62.2,30.26,NNE,23,0.0,0.0,36,0.00,,,0.00,WUHU216HW,2013-07-02 15:30:00,
2013-07-02 10:35:00,93.7,63.3,30.26,North,0,0.0,0.0,37,0.00,,,0.00,WUHU216HW,2013-07-02 15:35:00,
2013-07-02 10:40:00,94.1,62.0,30.26,NNE,23,0.0,0.0,35,0.00,,,0.00,WUHU216HW,2013-07-02 15:40:00,
2013-07-02 10:45:00,94.6,63.0,30.26,NNE,23,0.0,0.0,37,0.00,,,0.00,WUHU216HW,2013-07-02 15:45:00,
2013-07-02 10:50:00,94.8,62.7,30.26,North,0,2.5,2.5,35,0.00,,,0.00,WUHU216HW,2013-07-02 15:50:00,
2013-07-02 10:55:00,95.3,63.0,30.26,NNE,23,0.0,2.5,35,0.00,,,0.00,WUHU216HW,2013-07-02 15:55:00,
2013-07-02 11:00:00,94.8,61.8,30.26,NNE,23,0.0,0.0,34,0.00,,,0.00,WUHU216HW,2013-07-02 16:00:00,
2013-07-02 11:05:00,95.1,61.3,30.26,NNE,23,0.0,0.0,33,0.00,,,0.00,WUHU216HW,2013-07-02 16:05:00,
2013-07-02 11:10:00,95.7,61.8,30.26,North,0,0.0,0.0,33,0.00,,,0.00,WUHU216HW,2013-07-02 16:10:00,
2013-07-02 11:15:00,95.5,60.8,30.26,NNE,23,5.5,5.5,32,0.00,,,0.00,WUHU216HW,2013-07-02 16:15:00,
2013-07-02 11:20:00,95.1,61.3,30.27,NNE,23,1.6,5.5,33,0.00,,,0.00,WUHU216HW,2013-07-02 16:20:00,
2013-07-02 11:25:00,94.2,60.6,30.26,NE,45,1.6,1.6,33,0.00,,,0.00,WUHU216HW,2013-07-02 16:25:00,
2013-07-02 11:30:00,93.3,60.6,30.27,North,0,1.4,1.6,34,0.00,,,0.00,WUHU216HW,2013-07-02 16:30:00,
2013-07-02 11:35:00,93.0,60.2,30.27,North,0,0.0,1.6,34,0.00,,,0.00,WUHU216HW,2013-07-02 16:35:00,
2013-07-02 11:40:00,93.0,60.2,30.26,North,0,0.5,0.5,34,0.00,,,0.00,WUHU216HW,2013-07-02 16:40:00,
2013-07-02 11:45:00,93.0,60.2,30.26,NNE,23,3.0,3.0,34,0.00,,,0.00,WUHU216HW,2013-07-02 16:45:00,
2013-07-02 11:50:00,92.8,60.1,30.26,North,0,1.9,3.0,34,0.00,,,0.00,WUHU216HW,2013-07-02 16:50:00,
2013-07-02 11:55:00,92.4,59.8,30.26,North,0,0.0,1.9,34,0.00,,,0.00,WUHU216HW,2013-07-02 16:55:00,
2013-07-02 12:00:00,93.7,60.1,30.26,North,0,0.0,0.0,33,0.00,,,0.00,WUHU216HW,2013-07-02 17:00:00,
2013-07-02 12:05:00,93.9,59.4,30.26,East,90,0.0,0.0,32,0.00,,,0.00,WUHU216HW,2013-07-02 17:05:00,
2013-07-02 12:10:00,94.4,60.6,30.26,North,0,3.0,3.0,33,0.00,,,0.00,WUHU216HW,2013-07-02 17:10:00,
2013-07-02 12:15:00,93.9,58.6,30.26,NNE,23,0.0,3.0,31,0.00,,,0.00,WUHU216HW,2013-07-02 17:15:00,
2013-07-02 12:20:00,93.3,58.9,30.26,NNW,338,0.0,3.0,32,0.00,,,0.00,WUHU216HW,2013-07-02 17:20:00,
2013-07-02 12:25:00,92.6,58.8,30.27,NNE,23,7.8,7.8,33,0.00,,,0.00,WUHU216HW,2013-07-02 17:25:00,
2013-07-02 12:30:00,90.1,57.7,30.26,North,0,4.4,7.8,34,0.00,,,0.00,WUHU216HW,2013-07-02 17:30:00,
2013-07-02 12:35:00,88.3,57.7,30.27,NNE,23,0.0,7.8,35,0.00,,,0.00,WUHU216HW,2013-07-02 17:35:00,
2013-07-02 12:40:00,85.8,55.9,30.26,North,0,0.0,7.3,36,0.00,,,0.00,WUHU216HW,2013-07-02 17:40:00,
2013-07-02 12:45:00,87.4,57.8,30.26,WNW,293,0.0,7.3,37,0.00,,,0.00,WUHU216HW,2013-07-02 17:45:00,
2013-07-02 12:50:00,89.2,57.7,30.26,NW,315,0.0,0.0,35,0.00,,,0.00,WUHU216HW,2013-07-02 17:50:00,
2013-07-02 12:55:00,91.7,59.8,30.26,NE,45,1.4,3.0,34,0.00,,,0.00,WUHU216HW,2013-07-02 17:55:00,
2013-07-02 13:00:00,93.0,59.4,30.25,North,0,4.4,4.4,33,0.00,,,0.00,WUHU216HW,2013-07-02 18:00:00,
2013-07-02 13:05:00,93.9,59.4,30.25,NNE,23,0.0,4.4,32,0.00,,,0.00,WUHU216HW,2013-07-02 18:05:00,
2013-07-02 13:10:00,94.1,59.3,30.25,North,0,0.0,0.0,32,0.00,,,0.00,WUHU216HW,2013-07-02 18:10:00,
2013-07-02 13:15:00,93.9,58.6,30.25,North,0,0.0,0.0,31,0.00,,,0.00,WUHU216HW,2013-07-02 18:15:00,
2013-07-02 13:20:00,94.2,58.9,30.25,North,0,0.0,3.3,30,0.00,,,0.00,WUHU216HW,2013-07-02 18:20:00,
2013-07-02 13:25:00,95.1,59.4,30.25,ESE,113,0.0,3.3,30,0.00,,,0.00,WUHU216HW,2013-07-02 18:25:00,
2013-07-02 13:30:00,94.1,60.4,30.24,NNW,338,0.0,0.0,33,0.00,,,0.00,WUHU216HW,2013-07-02 18:30:00,
2013-07-02 13:35:00,91.9,57.7,30.24,North,0,1.4,1.4,32,0.00,,,0.00,WUHU216HW,2013-07-02 18:35:00,
2013-07-02 13:40:00,89.2,56.9,30.24,North,0,3.3,3.3,34,0.00,,,0.00,WUHU216HW,2013-07-02 18:40:00,
2013-07-02 13:45:00,88.8,58.2,30.25,East,90,0.0,3.3,36,0.00,,,0.00,WUHU216HW,2013-07-02 18:45:00,
2013-07-02 13:50:00,89.4,57.9,30.25,East,90,0.0,1.0,35,0.00,,,0.00,WUHU216HW,2013-07-02 18:50:00,
2013-07-02 13:55:00,89.7,57.7,30.25,East,90,0.0,1.0,34,0.00,,,0.00,WUHU216HW,2013-07-02 18:55:00,
2013-07-02 14:00:00,90.3,58.7,30.24,East,90,0.0,0.0,35,0.00,,,0.00,WUHU216HW,2013-07-02 19:00:00,
2013-07-02 14:05:00,90.3,58.2,30.24,NNE,23,0.0,0.0,34,0.00,,,0.00,WUHU216HW,2013-07-02 19:05:00,
2013-07-02 14:10:00,87.6,57.1,30.24,North,0,0.5,0.5,36,0.00,,,0.00,WUHU216HW,2013-07-02 19:10:00,
2013-07-02 14:15:00,85.8,56.4,30.24,North,0,0.0,0.5,37,0.00,,,0.00,WUHU216HW,2013-07-02 19:15:00,
2013-07-02 14:20:00,84.9,55.6,30.24,NNW,338,0.0,0.0,37,0.00,,,0.00,WUHU216HW,2013-07-02 19:20:00,
2013-07-02 14:25:00,85.6,59.3,30.24,WNW,293,1.4,1.4,41,0.00,,,0.00,WUHU216HW,2013-07-02 19:25:00,
2013-07-02 14:30:00,85.6,57.8,30.24,WNW,293,0.0,1.4,39,0.00,,,0.00,WUHU216HW,2013-07-02 19:30:00,
2013-07-02 14:35:00,85.8,57.2,30.24,NW,315,0.0,1.4,38,0.00,,,0.00,WUHU216HW,2013-07-02 19:35:00,
2013-07-02 14:40:00,86.5,57.0,30.24,North,0,0.0,0.0,37,0.00,,,0.00,WUHU216HW,2013-07-02 19:40:00,
2013-07-02 14:45:00,86.7,57.2,30.24,North,0,5.7,7.3,37,0.00,,,0.00,WUHU216HW,2013-07-02 19:45:00,
2013-07-02 14:50:00,86.7,58.0,30.24,NNE,23,0.0,7.3,38,0.00,,,0.00,WUHU216HW,2013-07-02 19:50:00,
2013-07-02 14:55:00,87.4,57.0,30.24,NNW,338,0.0,4.1,36,0.00,,,0.00,WUHU216HW,2013-07-02 19:55:00,
2013-07-02 15:00:00,87.6,57.2,30.24,WNW,293,0.0,0.0,36,0.00,,,0.00,WUHU216HW,2013-07-02 20:00:00,
2013-07-02 15:05:00,87.6,57.2,30.24,WNW,293,0.0,0.0,36,0.00,,,0.00,WUHU216HW,2013-07-02 20:05:00,
2013-07-02 15:10:00,88.1,57.6,30.24,North,0,0.0,0.0,36,0.00,,,0.00,WUHU216HW,2013-07-02 20:10:00,
2013-07-02 15:15:00,88.3,57.0,30.24,North,0,0.0,0.0,35,0.00,,,0.00,WUHU216HW,2013-07-02 20:15:00,
2013-07-02 15:20:00,88.5,57.1,30.23,SE,135,0.0,0.0,35,0.00,,,0.00,WUHU216HW,2013-07-02 20:20:00,
2013-07-02 15:25:00,88.8,57.4,30.23,North,0,0.0,0.0,35,0.00,,,0.00,WUHU216HW,2013-07-02 20:25:00,
2013-07-02 15:30:00,88.3,57.8,30.23,NNE,23,0.0,0.0,36,0.00,,,0.00,WUHU216HW,2013-07-02 20:30:00,
2013-07-02 15:35:00,86.9,58.2,30.23,NNE,23,0.0,0.0,38,0.00,,,0.00,WUHU216HW,2013-07-02 20:35:00,
2013-07-02 15:40:00,86.7,58.8,30.23,NNE,23,0.0,0.0,39,0.00,,,0.00,WUHU216HW,2013-07-02 20:40:00,
2013-07-02 15:45:00,86.9,58.2,30.23,ENE,68,0.0,0.0,38,0.00,,,0.00,WUHU216HW,2013-07-02 20:45:00,
2013-07-02 15:50:00,87.6,60.4,30.22,NNE,23,0.0,0.0,40,0.00,,,0.00,WUHU216HW,2013-07-02 20:50:00,
2013-07-02 15:55:00,88.5,58.7,30.22,North,0,0.0,0.0,37,0.00,,,0.00,WUHU216HW,2013-07-02 20:55:00,
2013-07-02 16:00:00,88.8,59.0,30.22,North,0,0.0,0.0,37,0.00,,,0.00,WUHU216HW,2013-07-02 21:00:00,
2013-07-02 16:05:00,88.7,58.9,30.22,NNW,338,0.0,0.0,37,0.00,,,0.00,WUHU216HW,2013-07-02 21:05:00,
2013-07-02 16:10:00,86.7,58.0,30.22,NNE,23,0.0,0.0,38,0.00,,,0.00,WUHU216HW,2013-07-02 21:10:00,
2013-07-02 16:15:00,84.9,58.0,30.22,North,0,0.0,1.6,40,0.00,,,0.00,WUHU216HW,2013-07-02 21:15:00,
2013-07-02 16:20:00,84.3,57.5,30.22,North,0,0.0,1.6,40,0.00,,,0.00,WUHU216HW,2013-07-02 21:20:00,
2013-07-02 16:25:00,84.7,57.8,30.22,NW,315,0.0,0.0,40,0.00,,,0.00,WUHU216HW,2013-07-02 21:25:00,
2013-07-02 16:30:00,85.2,56.7,30.21,North,0,0.0,0.0,38,0.00,,,0.00,WUHU216HW,2013-07-02 21:30:00,
2013-07-02 16:35:00,85.8,57.2,30.22,North,0,0.0,0.0,38,0.00,,,0.00,WUHU216HW,2013-07-02 21:35:00,
2013-07-02 16:40:00,86.0,56.6,30.21,North,0,0.0,0.0,37,0.00,,,0.00,WUHU216HW,2013-07-02 21:40:00,
2013-07-02 16:45:00,86.5,57.0,30.21,North,0,0.0,0.0,37,0.00,,,0.00,WUHU216HW,2013-07-02 21:45:00,
2013-07-02 16:50:00,86.9,56.6,30.21,North,0,0.0,0.0,36,0.00,,,0.00,WUHU216HW,2013-07-02 21:50:00,
2013-07-02 16:55:00,87.0,56.7,30.21,NNE,23,0.0,0.0,36,0.00,,,0.00,WUHU216HW,2013-07-02 21:55:00,
2013-07-02 17:00:00,87.6,57.2,30.20,NNE,23,0.0,0.0,36,0.00,,,0.00,WUHU216HW,2013-07-02 22:00:00,
2013-07-02 17:05:00,87.9,57.5,30.21,NNW,338,0.0,0.0,36,0.00,,,0.00,WUHU216HW,2013-07-02 22:05:00,
2013-07-02 17:10:00,88.1,57.6,30.21,NNW,338,0.0,0.0,36,0.00,,,0.00,WUHU216HW,2013-07-02 22:10:00,
2013-07-02 17:15:00,89.2,57.7,30.21,NNW,338,0.0,0.0,35,0.00,,,0.00,WUHU216HW,2013-07-02 22:15:00,
2013-07-02 17:20:00,89.4,57.9,30.20,NW,315,0.0,0.0,35,0.00,,,0.00,WUHU216HW,2013-07-02 22:20:00,
2013-07-02 17:25:00,89.2,57.7,30.20,NW,315,0.0,0.0,35,0.00,,,0.00,WUHU216HW,2013-07-02 22:25:00,
2013-07-02 17:30:00,88.7,58.1,30.20,North,0,0.8,0.8,36,0.00,,,0.00,WUHU216HW,2013-07-02 22:30:00,
2013-07-02 17:35:00,87.9,57.5,30.19,North,0,0.0,7.8,36,0.00,,,0.00,WUHU216HW,2013-07-02 22:35:00,
2013-07-02 17:40:00,88.5,57.9,30.19,NNW,338,0.0,7.8,36,0.00,,,0.00,WUHU216HW,2013-07-02 22:40:00,
2013-07-02 17:45:00,89.9,58.4,30.19,NNW,338,0.0,0.0,35,0.00,,,0.00,WUHU216HW,2013-07-02 22:45:00,
2013-07-02 17:50:00,91.2,58.7,30.19,NNE,23,0.0,0.0,34,0.00,,,0.00,WUHU216HW,2013-07-02 22:50:00,
2013-07-02 17:55:00,91.0,58.6,30.19,North,0,0.0,0.0,34,0.00,,,0.00,WUHU216HW,2013-07-02 22:55:00,
2013-07-02 18:00:00,90.5,58.9,30.20,North,0,0.0,0.0,35,0.00,,,0.00,WUHU216HW,2013-07-02 23:00:00,
2013-07-02 18:05:00,90.6,59.0,30.19,North,0,0.0,0.0,35,0.00,,,0.00,WUHU216HW,2013-07-02 23:05:00,
2013-07-02 18:10:00,90.6,59.0,30.19,North,0,0.0,1.0,35,0.00,,,0.00,WUHU216HW,2013-07-02 23:10:00,
2013-07-02 18:15:00,90.5,58.9,30.19,North,0,0.0,1.0,35,0.00,,,0.00,WUHU216HW,2013-07-02 23:15:00,
2013-07-02 18:20:00,90.6,59.0,30.19,NNE,23,0.0,0.0,35,0.00,,,0.00,WUHU216HW,2013-07-02 23:20:00,
2013-07-02 18:25:00,91.0,58.6,30.19,North,0,0.0,0.0,34,0.00,,,0.00,WUHU216HW,2013-07-02 23:25:00,
2013-07-02 18:29:00,91.0,58.6,30.19,North,0,0.0,0.0,34,0.00,,,0.00,WUHU216HW,2013-07-02 23:29:00,
2013-07-02 18:34:00,91.2,59.3,30.19,North,0,0.0,0.0,35,0.00,,,0.00,WUHU216HW,2013-07-02 23:34:00,
2013-07-02 18:39:00,90.8,59.2,30.19,North,0,0.0,0.0,35,0.00,,,0.00,WUHU216HW,2013-07-02 23:39:00,
2013-07-02 18:44:00,90.1,58.5,30.19,NNW,338,0.0,0.0,36,0.00,,,0.00,WUHU216HW,2013-07-02 23:44:00,
2013-07-02 18:49:00,90.3,59.5,30.19,NNW,338,0.0,0.0,36,0.00,,,0.00,WUHU216HW,2013-07-02 23:49:00,
2013-07-02 18:54:00,90.8,59.2,30.18,NNW,338,0.0,0.0,35,0.00,,,0.00,WUHU216HW,2013-07-02 23:54:00,
2013-07-02 18:59:00,91.7,60.0,30.19,NNW,338,0.0,0.0,35,0.00,,,0.00,WUHU216HW,2013-07-02 23:59:00,
2013-07-02 19:01:00,92.3,60.4,30.19,NNW,338,0.0,0.0,35,0.00,,,0.00,WUHU216HW,2013-07-03 00:01:00,
2013-07-02 19:06:00,93.0,60.2,30.19,NNW,338,0.0,0.0,34,0.00,,,0.00,WUHU216HW,2013-07-03 00:06:00,
2013-07-02 19:11:00,92.4,59.8,30.19,North,0,0.0,0.0,34,0.00,,,0.00,WUHU216HW,2013-07-03 00:11:00,
2013-07-02 19:16:00,91.9,60.9,30.19,NNW,338,0.0,0.0,36,0.00,,,0.00,WUHU216HW,2013-07-03 00:16:00,
2013-07-02 19:21:00,91.5,60.6,30.19,NNW,338,0.0,0.0,36,0.00,,,0.00,WUHU216HW,2013-07-03 00:21:00,
2013-07-02 19:23:00,91.5,60.6,30.19,NNW,338,0.0,0.0,36,0.00,,,0.00,WUHU216HW,2013-07-03 00:23:00,
2013-07-02 19:24:00,91.5,60.6,30.19,NNW,338,0.0,0.0,36,0.00,,,0.00,WUHU216HW,2013-07-03 00:24:00,
2013-07-02 19:28:00,91.2,60.3,30.19,NW,315,0.0,0.0,36,0.00,,,0.00,WUHU216HW,2013-07-03 00:28:00,
2013-07-02 19:33:00,90.6,60.6,30.18,NW,315,0.0,0.0,37,0.00,,,0.00,WUHU216HW,2013-07-03 00:33:00,
2013-07-02 19:38:00,90.3,61.9,30.19,NW,315,0.0,0.0,39,0.00,,,0.00,WUHU216HW,2013-07-03 00:38:00,
2013-07-02 19:43:00,89.9,61.5,30.19,NW,315,0.0,0.0,39,0.00,,,0.00,WUHU216HW,2013-07-03 00:43:00,
2013-07-02 19:48:00,89.7,61.5,30.19,NW,315,0.0,0.0,39,0.00,,,0.00,WUHU216HW,2013-07-03 00:48:00,
2013-07-02 19:53:00,89.7,62.2,30.19,NNW,338,0.0,0.0,40,0.00,,,0.00,WUHU216HW,2013-07-03 00:53:00,
2013-07-02 19:58:00,89.4,62.5,30.19,NW,315,0.0,0.0,41,0.00,,,0.00,WUHU216HW,2013-07-03 00:58:00,
2013-07-02 20:00:00,88.8,61.4,30.19,NW,315,0.0,0.0,40,0.00,,,0.00,WUHU216HW,2013-07-03 01:00:00,
2013-07-02 20:03:00,87.8,59.8,30.19,NW,315,0.0,0.0,39,0.00,,,0.00,WUHU216HW,2013-07-03 01:03:00,
2013-07-02 20:08:00,87.0,59.9,30.19,WNW,293,0.0,0.0,40,0.00,,,0.00,WUHU216HW,2013-07-03 01:08:00,
2013-07-02 20:09:00,87.0,59.9,30.19,WNW,293,0.0,0.0,40,0.00,,,0.00,WUHU216HW,2013-07-03 01:09:00,
2013-07-02 20:14:00,86.7,60.9,30.18,NW,315,0.0,0.0,42,0.00,,,0.00,WUHU216HW,2013-07-03 01:14:00,
2013-07-02 20:19:00,86.1,61.0,30.18,NW,315,0.0,0.0,43,0.00,,,0.00,WUHU216HW,2013-07-03 01:19:00,
2013-07-02 20:24:00,85.8,60.7,30.18,NW,315,0.0,0.0,43,0.00,,,0.00,WUHU216HW,2013-07-03 01:24:00,
2013-07-02 20:26:00,85.8,60.5,30.18,NW,315,0.0,0.0,43,0.00,,,0.00,WUHU216HW,2013-07-03 01:26:00,
2013-07-02 20:31:00,85.1,59.4,30.18,NW,315,0.0,0.0,42,0.00,,,0.00,WUHU216HW,2013-07-03 01:31:00,
2013-07-02 20:36:00,84.0,59.0,30.18,NW,315,0.0,0.0,43,0.00,,,0.00,WUHU216HW,2013-07-03 01:36:00,
2013-07-02 20:41:00,83.1,58.2,30.18,NW,315,0.0,0.0,43,0.00,,,0.00,WUHU216HW,2013-07-03 01:41:00,
2013-07-02 20:46:00,80.9,56.3,30.18,NW,315,0.0,0.0,43,0.00,,,0.00,WUHU216HW,2013-07-03 01:46:00,
2013-07-02 20:50:00,79.8,55.9,30.18,NW,315,0.0,0.0,45,0.00,,,0.00,WUHU216HW,2013-07-03 01:50:00,
2013-07-02 20:55:00,78.4,55.2,30.18,NW,315,0.0,0.0,45,0.00,,,0.00,WUHU216HW,2013-07-03 01:55:00,
2013-07-02 21:00:00,77.7,55.2,30.18,NW,315,0.0,0.0,46,0.00,,,0.00,WUHU216HW,2013-07-03 02:00:00,
2013-07-02 21:05:00,76.8,54.4,30.18,NW,315,0.0,0.0,46,0.00,,,0.00,WUHU216HW,2013-07-03 02:05:00,
2013-07-02 21:10:00,75.7,54.0,30.18,NW,315,0.0,0.0,47,0.00,,,0.00,WUHU216HW,2013-07-03 02:10:00,
2013-07-02 21:16:00,74.1,53.7,30.17,NW,315,0.0,0.0,49,0.00,,,0.00,WUHU216HW,2013-07-03 02:16:00,
2013-07-02 21:21:00,73.2,53.4,30.18,NW,315,0.0,0.0,50,0.00,,,0.00,WUHU216HW,2013-07-03 02:21:00,
2013-07-02 21:26:00,72.3,52.6,30.18,NW,315,0.0,0.0,50,0.00,,,0.00,WUHU216HW,2013-07-03 02:26:00,
2013-07-02 21:31:00,71.4,52.8,30.18,NW,315,0.0,0.0,52,0.00,,,0.00,WUHU216HW,2013-07-03 02:31:00,
2013-07-02 21:32:00,71.4,52.8,30.18,NW,315,0.0,0.0,52,0.00,,,0.00,WUHU216HW,2013-07-03 02:32:00,
2013-07-02 21:37:00,71.0,53.0,30.18,NW,315,0.0,0.0,53,0.00,,,0.00,WUHU216HW,2013-07-03 02:37:00,
2013-07-02 21:42:00,70.3,52.8,30.18,NW,315,0.0,0.0,54,0.00,,,0.00,WUHU216HW,2013-07-03 02:42:00,
2013-07-02 21:46:00,69.9,52.5,30.18,NW,315,0.0,0.0,54,0.00,,,0.00,WUHU216HW,2013-07-03 02:46:00,
2013-07-02 21:51:00,69.6,52.7,30.18,NW,315,0.0,0.0,55,0.00,,,0.00,WUHU216HW,2013-07-03 02:51:00,
2013-07-02 21:56:00,69.4,53.0,30.18,NW,315,0.0,0.0,56,0.00,,,0.00,WUHU216HW,2013-07-03 02:56:00,
2013-07-02 22:01:00,68.9,53.9,30.18,NW,315,0.0,0.0,59,0.00,,,0.00,WUHU216HW,2013-07-03 03:01:00,
2013-07-02 22:02:00,68.9,53.9,30.18,NW,315,0.0,0.0,59,0.00,,,0.00,WUHU216HW,2013-07-03 03:02:00,
2013-07-02 22:07:00,68.9,56.1,30.18,NW,315,0.0,0.0,63,0.00,,,0.00,WUHU216HW,2013-07-03 03:07:00,
2013-07-02 22:13:00,68.7,55.5,30.19,NW,315,0.0,0.0,63,0.00,,,0.00,WUHU216HW,2013-07-03 03:13:00,
2013-07-02 22:18:00,68.5,55.8,30.19,WNW,293,0.0,0.0,64,0.00,,,0.00,WUHU216HW,2013-07-03 03:18:00,
2013-07-02 22:21:00,68.3,55.2,30.19,WNW,293,0.0,0.0,64,0.00,,,0.00,WUHU216HW,2013-07-03 03:21:00,
2013-07-02 22:26:00,67.8,53.8,30.19,WNW,293,0.0,0.0,61,0.00,,,0.00,WUHU216HW,2013-07-03 03:26:00,
2013-07-02 22:31:00,67.2,52.9,30.18,WNW,293,0.0,0.0,60,0.00,,,0.00,WUHU216HW,2013-07-03 03:31:00,
2013-07-02 22:35:00,66.9,52.6,30.18,WNW,293,0.0,0.0,60,0.00,,,0.00,WUHU216HW,2013-07-03 03:35:00,
2013-07-02 22:39:00,66.9,52.6,30.18,WNW,293,0.0,0.0,60,0.00,,,0.00,WUHU216HW,2013-07-03 03:39:00,
2013-07-02 22:44:00,66.7,52.8,30.18,WNW,293,0.0,0.0,61,0.00,,,0.00,WUHU216HW,2013-07-03 03:44:00,
2013-07-02 22:49:00,66.9,54.3,30.18,WNW,293,0.0,0.0,64,0.00,,,0.00,WUHU216HW,2013-07-03 03:49:00,
2013-07-02 22:54:00,66.9,54.7,30.18,WNW,293,0.0,0.0,65,0.00,,,0.00,WUHU216HW,2013-07-03 03:54:00,
2013-07-02 22:59:00,67.1,55.3,30.18,WNW,293,0.0,0.0,66,0.00,,,0.00,WUHU216HW,2013-07-03 03:59:00,
2013-07-02 23:00:00,67.1,55.3,30.18,WNW,293,0.0,0.0,66,0.00,,,0.00,WUHU216HW,2013-07-03 04:00:00,
2013-07-02 23:01:00,67.1,55.3,30.18,WNW,293,0.0,0.0,66,0.00,,,0.00,WUHU216HW,2013-07-03 04:01:00,
2013-07-02 23:03:00,66.9,54.7,30.18,WNW,293,0.0,0.0,65,0.00,,,0.00,WUHU216HW,2013-07-03 04:03:00,
2013-07-02 23:04:00,66.9,54.7,30.18,WNW,293,0.0,0.0,65,0.00,,,0.00,WUHU216HW,2013-07-03 04:04:00,
2013-07-02 23:09:00,66.7,54.9,30.18,WNW,293,0.0,0.0,66,0.00,,,0.00,WUHU216HW,2013-07-03 04:09:00,
2013-07-02 23:14:00,66.9,55.1,30.18,West,270,0.0,0.0,66,0.00,,,0.00,WUHU216HW,2013-07-03 04:14:00,
2013-07-02 23:19:00,66.9,55.5,30.18,SSW,203,0.0,0.0,67,0.00,,,0.00,WUHU216HW,2013-07-03 04:19:00,
2013-07-02 23:24:00,66.7,55.8,30.18,SSW,203,0.0,0.0,68,0.00,,,0.00,WUHU216HW,2013-07-03 04:24:00,
2013-07-02 23:29:00,66.3,55.0,30.18,SSW,203,0.0,0.0,67,0.00,,,0.00,WUHU216HW,2013-07-03 04:29:00,
2013-07-02 23:31:00,66.0,54.2,30.18,SSW,203,0.0,0.0,66,0.00,,,0.00,WUHU216HW,2013-07-03 04:31:00,
2013-07-02 23:32:00,66.0,54.2,30.18,SSW,203,0.0,0.0,66,0.00,,,0.00,WUHU216HW,2013-07-03 04:32:00,
2013-07-02 23:37:00,65.6,54.3,30.17,SSW,203,0.0,0.0,67,0.00,,,0.00,WUHU216HW,2013-07-03 04:37:00,
2013-07-02 23:42:00,65.3,54.4,30.18,SSW,203,0.0,0.0,68,0.00,,,0.00,WUHU216HW,2013-07-03 04:42:00,
2013-07-02 23:45:00,65.1,53.8,30.17,SSW,203,0.0,0.0,67,0.00,,,0.00,WUHU216HW,2013-07-03 04:45:00,
2013-07-02 23:46:00,65.1,53.8,30.17,SSW,203,0.0,0.0,67,0.00,,,0.00,WUHU216HW,2013-07-03 04:46:00,
2013-07-02 23:51:00,64.7,53.0,30.18,SSW,203,0.0,0.0,66,0.00,,,0.00,WUHU216HW,2013-07-03 04:51:00,
2013-07-02 23:53:00,64.5,52.9,30.18,SSW,203,0.0,0.0,66,0.00,,,0.00,WUHU216HW,2013-07-03 04:53:00,
2013-07-02 23:58:00,64.5,52.9,30.18,SSW,203,0.0,0.0,66,0.00,,,0.00,WUHU216HW,2013-07-03 04:58:00,